マイアミ の空港の天気 - METARとTAF

マイアミ国際空港 ( KMIA / MIA ) - アメリカ フロリダ州マイアミ
飛行場実況気象(Metar)
観測時間04/21 12:53 EDT (04/21 16:53 UTC)
風向・風速北北西 3m/s
視程10km以上
天気現象
全天の4割程度の雲 雲底高度 1520m
気温25.6℃
湿度43%
気圧1020.6hPa
METARKMIA 211653Z 33005KT 10SM SCT050 26/12 A3014 RMK AO2 SLP206 T02560122
過去の天気等 Google飛行場航空写真 Wunderground天気予報

過去48時間のMETAR

飛行場予報(TAF)
発表時間: 4/21 11:03 EDT (4/21 15:03 UTC)
予報対象時間: 21日11時 EDT ~ 22日14時 EDT
風向・風速西北西 5m/s
視程10km以上
少しの雲 雲底高度 1220m
21日16時 EDT から
風向・風速北東 5m/s
視程10km以上
少しの雲 雲底高度 1520m
21日18時 EDT から
風向・風速東北東 4m/s
視程10km以上
なし
22日2時 EDT から
風向・風速不定 2m/s
視程10km以上
少しの雲 雲底高度 1070m
KMIA 211503Z 2115/2218 30010KT P6SM FEW040
FM212000 04010KT P6SM FEW050
FM212200 07008KT P6SM SKC
FM220600 VRB03KT P6SM FEW035